Time;durP1;ratioP1;P1;durP2;ratioP2;P2;SDS_P1;SDS_P2;PMS_P1;PMS_P2;Temp;Humidity;BMP_temperature;BMP_pressure;BME280_temperature;BME280_humidity;BME280_pressure;Samples;Min_cycle;Max_cycle;Signal;HPM_P1;HPM_P2
2021/12/25 00:01:41;;;;;;;4.10;2.10;;;;;;;;;;5031163;28;20041;-66
2021/12/25 00:04:08;;;;;;;8.93;2.47;;;;;;;;;;5030583;28;20495;-67
2021/12/25 00:06:35;;;;;;;4.45;2.42;;;;;;;;;;5013290;28;20049;-66
2021/12/25 00:09:01;;;;;;;6.28;2.60;;;;;;;;;;5030661;28;20045;-67
2021/12/25 00:11:27;;;;;;;5.28;2.40;;;;;;;;;;5030562;28;20522;-66
2021/12/25 00:13:53;;;;;;;4.53;2.47;;;;;;;;;;5030441;28;20046;-66
2021/12/25 00:16:19;;;;;;;8.18;2.25;;;;;;;;;;5032701;28;20051;-67
2021/12/25 00:18:45;;;;;;;6.18;1.85;;;;;;;;;;5034830;28;20437;-66
2021/12/25 00:21:11;;;;;;;2.10;1.42;;;;;;;;;;5034445;28;20042;-66
2021/12/25 00:23:38;;;;;;;2.97;1.80;;;;;;;;;;5034623;28;20403;-66
2021/12/25 00:26:24;;;;;;;3.35;1.80;;;;;;;;;;5033835;28;20064;-66
2021/12/25 00:29:02;;;;;;;3.42;2.30;;;;;;;;;;5034840;28;20049;-66
2021/12/25 00:31:57;;;;;;;2.97;1.70;;;;;;;;;;5033848;28;20108;-66
2021/12/25 00:34:23;;;;;;;7.22;2.05;;;;;;;;;;5033838;28;20128;-67
2021/12/25 00:36:50;;;;;;;8.18;1.85;;;;;;;;;;5034469;28;20037;-66
2021/12/25 00:39:16;;;;;;;5.40;2.15;;;;;;;;;;5034337;28;20045;-66
2021/12/25 00:41:42;;;;;;;3.92;1.60;;;;;;;;;;5033616;28;20037;-66
2021/12/25 00:44:08;;;;;;;4.25;1.80;;;;;;;;;;5034146;28;20517;-67
2021/12/25 00:46:34;;;;;;;5.25;1.70;;;;;;;;;;5034222;28;20041;-66
2021/12/25 00:49:00;;;;;;;6.00;1.80;;;;;;;;;;5033346;28;20045;-66
2021/12/25 00:51:26;;;;;;;3.90;1.90;;;;;;;;;;5033309;28;20029;-66
2021/12/25 00:53:52;;;;;;;2.80;1.52;;;;;;;;;;5034535;28;20125;-66
2021/12/25 00:56:18;;;;;;;3.38;2.22;;;;;;;;;;5033736;28;20365;-66
2021/12/25 00:58:44;;;;;;;4.45;1.83;;;;;;;;;;5033846;28;20041;-66
2021/12/25 01:01:10;;;;;;;3.47;1.65;;;;;;;;;;5033003;28;20578;-66
2021/12/25 01:03:36;;;;;;;3.83;1.80;;;;;;;;;;5032647;28;20422;-66
2021/12/25 01:06:02;;;;;;;4.55;1.52;;;;;;;;;;5033603;28;20056;-67
2021/12/25 01:08:28;;;;;;;3.78;1.20;;;;;;;;;;5032767;28;20045;-66
2021/12/25 01:10:54;;;;;;;6.13;1.60;;;;;;;;;;5032013;28;20033;-67
2021/12/25 01:13:34;;;;;;;3.85;1.75;;;;;;;;;;5033970;28;20457;-66
2021/12/25 01:16:22;;;;;;;8.35;3.05;;;;;;;;;;5033216;28;20102;-66
2021/12/25 01:19:24;;;;;;;3.53;1.48;;;;;;;;;;5030040;28;20388;-66
2021/12/25 01:27:10;;;;;;;2.00;1.50;;;;;;;;;;5029396;28;20099;-66
2021/12/25 01:35:14;;;;;;;6.63;1.70;;;;;;;;;;5033277;28;20128;-66
2021/12/25 01:40:43;;;;;;;3.03;1.38;;;;;;;;;;5039727;28;20048;-66
2021/12/25 01:48:40;;;;;;;5.90;1.42;;;;;;;;;;5032716;28;20129;-66
2021/12/25 01:51:06;;;;;;;3.58;1.45;;;;;;;;;;5033013;28;20038;-66
2021/12/25 01:53:32;;;;;;;1.80;1.33;;;;;;;;;;5032572;28;20033;-67
2021/12/25 01:55:59;;;;;;;6.82;1.33;;;;;;;;;;5032764;28;20034;-67
2021/12/25 01:58:25;;;;;;;4.55;1.45;;;;;;;;;;5032800;28;20049;-67
2021/12/25 02:00:53;;;;;;;4.35;1.65;;;;;;;;;;5032552;28;20405;-67
2021/12/25 02:03:20;;;;;;;5.63;1.30;;;;;;;;;;5032899;28;20056;-67
2021/12/25 02:05:46;;;;;;;1.92;1.40;;;;;;;;;;5031962;28;20045;-67
2021/12/25 02:08:12;;;;;;;3.53;1.40;;;;;;;;;;5032317;28;20046;-67
2021/12/25 02:10:39;;;;;;;1.65;1.20;;;;;;;;;;5014405;28;20110;-67
2021/12/25 02:13:05;;;;;;;2.17;1.42;;;;;;;;;;5032057;28;20487;-67
2021/12/25 02:15:32;;;;;;;3.60;1.40;;;;;;;;;;5032740;28;20470;-67
2021/12/25 02:18:25;;;;;;;2.35;1.50;;;;;;;;;;5032132;28;20083;-67
2021/12/25 02:20:59;;;;;;;5.20;1.92;;;;;;;;;;5028760;28;20038;-67
2021/12/25 02:23:25;;;;;;;4.18;1.77;;;;;;;;;;5030812;28;20116;-67
2021/12/25 02:25:54;;;;;;;3.33;1.30;;;;;;;;;;5027915;28;20132;-67
2021/12/25 02:28:20;;;;;;;2.28;1.33;;;;;;;;;;5028630;28;20331;-68
2021/12/25 02:30:47;;;;;;;3.13;1.00;;;;;;;;;;5014346;28;20100;-68
2021/12/25 02:33:14;;;;;;;8.45;1.50;;;;;;;;;;5031930;28;20124;-67
2021/12/25 02:35:40;;;;;;;3.00;1.50;;;;;;;;;;5031719;28;20046;-67
2021/12/25 02:38:06;;;;;;;5.38;2.13;;;;;;;;;;5031648;28;20414;-67
2021/12/25 02:40:32;;;;;;;3.58;1.23;;;;;;;;;;5030930;28;20051;-67
2021/12/25 02:42:58;;;;;;;5.93;1.88;;;;;;;;;;5032226;28;20049;-68
2021/12/25 02:45:24;;;;;;;4.15;1.20;;;;;;;;;;5031443;28;20037;-68
2021/12/25 02:47:51;;;;;;;4.10;1.58;;;;;;;;;;5013205;28;20057;-67
2021/12/25 02:50:23;;;;;;;3.53;1.13;;;;;;;;;;5031101;28;20038;-68
2021/12/25 02:52:49;;;;;;;3.70;1.15;;;;;;;;;;5032231;28;20414;-68
2021/12/25 02:55:15;;;;;;;6.38;1.58;;;;;;;;;;5029798;28;20037;-68
2021/12/25 02:57:41;;;;;;;3.63;1.23;;;;;;;;;;5031911;28;20124;-68
2021/12/25 03:00:08;;;;;;;3.10;1.05;;;;;;;;;;5031196;28;20034;-68
2021/12/25 03:02:34;;;;;;;1.67;1.40;;;;;;;;;;5012996;28;20056;-68
2021/12/25 03:05:01;;;;;;;4.57;1.30;;;;;;;;;;5012828;28;20494;-68
2021/12/25 03:07:27;;;;;;;3.13;1.40;;;;;;;;;;5029407;28;20041;-67
2021/12/25 03:09:53;;;;;;;2.55;1.42;;;;;;;;;;5012723;28;20388;-68
2021/12/25 03:12:29;;;;;;;1.25;1.00;;;;;;;;;;5031766;28;20053;-68
2021/12/25 03:15:05;;;;;;;1.23;1.00;;;;;;;;;;5030922;28;20077;-68
2021/12/25 03:17:32;;;;;;;2.70;1.10;;;;;;;;;;5031174;28;20045;-68
2021/12/25 03:19:58;;;;;;;1.40;0.82;;;;;;;;;;5031092;28;20033;-68
2021/12/25 03:22:24;;;;;;;3.47;1.38;;;;;;;;;;5031862;28;20096;-67
2021/12/25 03:24:50;;;;;;;4.13;1.30;;;;;;;;;;5031171;28;20122;-68
2021/12/25 03:27:16;;;;;;;1.85;1.00;;;;;;;;;;5031137;28;20496;-68
2021/12/25 03:29:43;;;;;;;1.90;1.20;;;;;;;;;;5030537;28;20415;-68
2021/12/25 03:32:09;;;;;;;3.20;1.10;;;;;;;;;;5031322;28;20128;-68
2021/12/25 03:34:35;;;;;;;5.10;0.97;;;;;;;;;;5031313;28;20037;-68
2021/12/25 03:37:01;;;;;;;2.57;1.00;;;;;;;;;;5031308;28;20059;-67
2021/12/25 03:39:27;;;;;;;1.27;1.00;;;;;;;;;;5030849;28;20041;-68
2021/12/25 03:41:56;;;;;;;2.23;0.90;;;;;;;;;;5031199;28;20037;-68
2021/12/25 03:44:23;;;;;;;1.90;0.80;;;;;;;;;;5027736;28;20071;-68
2021/12/25 03:46:49;;;;;;;3.20;1.07;;;;;;;;;;5030937;28;20045;-68
2021/12/25 03:49:27;;;;;;;1.57;0.90;;;;;;;;;;5030713;28;20049;-68
2021/12/25 03:57:43;;;;;;;1.10;0.90;;;;;;;;;;5035112;28;20051;-68
2021/12/25 04:00:12;;;;;;;0.80;0.80;;;;;;;;;;5034159;28;20037;-68
2021/12/25 04:02:50;;;;;;;2.83;1.10;;;;;;;;;;5035101;28;20502;-68
2021/12/25 04:05:19;;;;;;;3.23;1.00;;;;;;;;;;5034804;28;20483;-68
2021/12/25 04:07:59;;;;;;;1.30;1.00;;;;;;;;;;5034377;28;20041;-68
2021/12/25 04:10:27;;;;;;;1.90;0.90;;;;;;;;;;5016978;28;20045;-67
2021/12/25 04:12:53;;;;;;;2.07;1.00;;;;;;;;;;5035025;28;20402;-68
2021/12/25 04:15:19;;;;;;;2.33;1.10;;;;;;;;;;5034722;28;20041;-68
2021/12/25 04:17:45;;;;;;;1.57;1.00;;;;;;;;;;5034387;28;20076;-68
2021/12/25 04:20:11;;;;;;;1.47;1.00;;;;;;;;;;5034162;28;20060;-68
2021/12/25 04:23:16;;;;;;;1.10;1.00;;;;;;;;;;5034821;28;20041;-68
2021/12/25 04:25:32;;;;;;;0.97;0.80;;;;;;;;;;5031606;28;20048;-68
2021/12/25 04:28:05;;;;;;;2.87;1.00;;;;;;;;;;5033939;28;20048;-68
2021/12/25 04:42:38;;;;;;;1.87;1.30;;;;;;;;;;5034922;28;20037;-68
2021/12/25 04:50:07;;;;;;;1.00;0.97;;;;;;;;;;5015846;28;20048;-68
2021/12/25 05:03:41;;;;;;;2.80;0.90;;;;;;;;;;5030078;28;20103;-68
2021/12/25 05:06:07;;;;;;;1.00;0.90;;;;;;;;;;5031866;28;20041;-67
2021/12/25 05:08:34;;;;;;;1.53;0.90;;;;;;;;;;5031247;28;20387;-68
2021/12/25 05:11:00;;;;;;;1.73;1.03;;;;;;;;;;5032771;28;20208;-67
2021/12/25 05:13:26;;;;;;;1.00;0.90;;;;;;;;;;5033759;28;20038;-67
2021/12/25 05:15:52;;;;;;;4.00;1.20;;;;;;;;;;5032890;28;20060;-68
2021/12/25 05:18:18;;;;;;;1.97;1.00;;;;;;;;;;5034054;28;20056;-68
2021/12/25 05:20:44;;;;;;;3.07;1.10;;;;;;;;;;5033453;28;20045;-68
2021/12/25 05:23:10;;;;;;;2.03;1.10;;;;;;;;;;5033490;28;20049;-67
2021/12/25 05:25:36;;;;;;;3.27;1.23;;;;;;;;;;5033492;28;20045;-67
2021/12/25 05:28:03;;;;;;;1.17;1.03;;;;;;;;;;5033068;28;20521;-68
2021/12/25 05:30:29;;;;;;;1.93;1.17;;;;;;;;;;5032373;28;20048;-67
2021/12/25 05:32:57;;;;;;;2.00;1.23;;;;;;;;;;5033844;28;20049;-68
2021/12/25 05:35:23;;;;;;;1.23;1.00;;;;;;;;;;5032850;28;20045;-68
2021/12/25 05:37:56;;;;;;;3.37;1.17;;;;;;;;;;5033458;28;20042;-68
2021/12/25 05:40:23;;;;;;;2.50;1.17;;;;;;;;;;5032377;28;20043;-68
2021/12/25 05:42:49;;;;;;;4.20;1.17;;;;;;;;;;5032988;28;20116;-68
2021/12/25 05:45:15;;;;;;;1.40;1.03;;;;;;;;;;5033136;28;20120;-68
2021/12/25 05:47:41;;;;;;;1.13;0.90;;;;;;;;;;5033001;28;20037;-68
2021/12/25 05:50:08;;;;;;;1.23;0.80;;;;;;;;;;5032089;28;20443;-68
2021/12/25 05:52:33;;;;;;;2.60;1.30;;;;;;;;;;5033378;28;20061;-67
2021/12/25 05:54:59;;;;;;;2.57;0.90;;;;;;;;;;5032920;28;20069;-67
2021/12/25 05:57:25;;;;;;;1.90;1.00;;;;;;;;;;5031447;28;20036;-67
2021/12/25 05:59:51;;;;;;;2.80;1.03;;;;;;;;;;5032411;28;20029;-68
2021/12/25 06:02:17;;;;;;;4.87;1.23;;;;;;;;;;5032852;28;20041;-68
2021/12/25 06:04:43;;;;;;;4.00;0.90;;;;;;;;;;5032725;28;20033;-68
2021/12/25 06:07:09;;;;;;;1.57;1.00;;;;;;;;;;5032571;28;20033;-68
2021/12/25 06:09:35;;;;;;;1.13;1.00;;;;;;;;;;5032084;28;20049;-68
2021/12/25 06:12:03;;;;;;;1.27;0.90;;;;;;;;;;5032132;28;20038;-68
2021/12/25 06:14:29;;;;;;;1.60;0.93;;;;;;;;;;5031942;28;20075;-67
2021/12/25 06:16:56;;;;;;;5.23;1.57;;;;;;;;;;5032081;28;20104;-67
2021/12/25 06:19:22;;;;;;;1.00;0.90;;;;;;;;;;5031399;28;20391;-68
2021/12/25 06:21:48;;;;;;;1.77;1.10;;;;;;;;;;5031771;28;20040;-68
2021/12/25 06:24:15;;;;;;;1.57;1.10;;;;;;;;;;5032444;28;20075;-68
2021/12/25 06:26:41;;;;;;;1.73;0.90;;;;;;;;;;5031323;28;20042;-68
2021/12/25 06:29:07;;;;;;;1.50;1.00;;;;;;;;;;5032165;28;20037;-68
2021/12/25 06:31:33;;;;;;;1.20;0.80;;;;;;;;;;5031407;28;20034;-68
2021/12/25 06:33:59;;;;;;;1.30;1.20;;;;;;;;;;5032268;28;20037;-67
2021/12/25 06:36:25;;;;;;;1.53;0.80;;;;;;;;;;5031859;28;20117;-68
2021/12/25 06:38:52;;;;;;;3.40;1.00;;;;;;;;;;5031893;28;20120;-68
2021/12/25 06:41:17;;;;;;;3.80;1.17;;;;;;;;;;5031571;28;20046;-68
2021/12/25 06:43:43;;;;;;;1.53;1.00;;;;;;;;;;5031789;28;20469;-68
2021/12/25 06:46:09;;;;;;;6.00;2.20;;;;;;;;;;5031705;28;20037;-68
2021/12/25 06:48:36;;;;;;;1.40;0.90;;;;;;;;;;5031357;28;20513;-68
2021/12/25 06:51:02;;;;;;;1.23;1.00;;;;;;;;;;5031515;28;20069;-68
2021/12/25 06:53:28;;;;;;;1.97;0.90;;;;;;;;;;5030098;28;20044;-68
2021/12/25 06:55:54;;;;;;;1.10;0.90;;;;;;;;;;5024228;28;20041;-67
2021/12/25 06:58:21;;;;;;;1.63;0.90;;;;;;;;;;5026300;28;20045;-68
2021/12/25 07:00:48;;;;;;;0.73;0.73;;;;;;;;;;5005679;28;20045;-68
2021/12/25 07:03:14;;;;;;;0.90;0.90;;;;;;;;;;5020530;28;20073;-67
2021/12/25 07:05:40;;;;;;;1.73;0.90;;;;;;;;;;5026209;28;20519;-68
2021/12/25 07:08:06;;;;;;;1.47;1.00;;;;;;;;;;5027325;28;20387;-67
2021/12/25 07:10:32;;;;;;;2.20;1.10;;;;;;;;;;5008483;28;20176;-67
2021/12/25 07:12:58;;;;;;;2.60;1.00;;;;;;;;;;5027529;28;20125;-68
2021/12/25 07:15:23;;;;;;;0.77;0.70;;;;;;;;;;5026857;28;20042;-68
2021/12/25 07:17:49;;;;;;;2.20;1.07;;;;;;;;;;5023084;28;20087;-68
2021/12/25 07:20:15;;;;;;;1.43;0.90;;;;;;;;;;5025733;28;20033;-68
2021/12/25 07:22:41;;;;;;;1.67;0.90;;;;;;;;;;5022482;28;20033;-67
2021/12/25 07:25:08;;;;;;;0.93;0.90;;;;;;;;;;5025540;28;20515;-67
2021/12/25 07:27:35;;;;;;;1.83;1.00;;;;;;;;;;5025774;28;20037;-68
2021/12/25 07:30:02;;;;;;;1.23;1.00;;;;;;;;;;5007294;28;20051;-67
2021/12/25 07:32:29;;;;;;;1.90;0.90;;;;;;;;;;5025584;28;20034;-68
2021/12/25 07:34:55;;;;;;;4.93;1.13;;;;;;;;;;5027263;28;20083;-67
2021/12/25 07:37:21;;;;;;;0.70;0.70;;;;;;;;;;5026713;28;20037;-68
2021/12/25 07:39:47;;;;;;;3.03;0.73;;;;;;;;;;5025472;28;20068;-68
2021/12/25 07:42:13;;;;;;;1.43;0.80;;;;;;;;;;5022294;28;20041;-68
2021/12/25 07:44:39;;;;;;;2.47;0.90;;;;;;;;;;5023772;28;20073;-68
2021/12/25 07:47:10;;;;;;;2.23;1.13;;;;;;;;;;5024722;28;20072;-67
2021/12/25 07:49:37;;;;;;;1.83;0.90;;;;;;;;;;5024087;28;20061;-66
2021/12/25 07:52:04;;;;;;;1.07;0.80;;;;;;;;;;5006103;28;20045;-68
2021/12/25 07:54:30;;;;;;;1.63;1.17;;;;;;;;;;5023226;28;20398;-67
2021/12/25 07:56:56;;;;;;;1.50;0.93;;;;;;;;;;5027133;28;20030;-68
2021/12/25 07:59:22;;;;;;;2.13;0.90;;;;;;;;;;5022557;28;20047;-68
2021/12/25 08:01:48;;;;;;;3.03;1.20;;;;;;;;;;5025505;28;20034;-68
2021/12/25 08:04:17;;;;;;;1.63;0.77;;;;;;;;;;5025818;28;20045;-67
2021/12/25 08:06:43;;;;;;;1.77;0.80;;;;;;;;;;5025128;28;20528;-67
2021/12/25 08:09:09;;;;;;;2.67;1.13;;;;;;;;;;5027227;28;20033;-66
2021/12/25 08:11:36;;;;;;;1.40;0.90;;;;;;;;;;5023766;28;20041;-67
2021/12/25 08:14:02;;;;;;;1.37;0.90;;;;;;;;;;5025939;28;20487;-67
2021/12/25 08:16:28;;;;;;;1.40;1.30;;;;;;;;;;5022852;28;20033;-67
2021/12/25 08:18:54;;;;;;;1.37;0.80;;;;;;;;;;5019963;28;20038;-67
2021/12/25 08:21:20;;;;;;;1.77;1.00;;;;;;;;;;5022890;28;20045;-67
2021/12/25 08:23:47;;;;;;;0.87;0.87;;;;;;;;;;5025234;28;20063;-67
2021/12/25 08:26:13;;;;;;;1.23;0.90;;;;;;;;;;5021430;28;20042;-67
2021/12/25 08:28:39;;;;;;;1.10;1.10;;;;;;;;;;5021599;28;20052;-68
2021/12/25 08:31:05;;;;;;;3.67;1.17;;;;;;;;;;5023764;28;20037;-67
2021/12/25 08:33:31;;;;;;;4.70;1.00;;;;;;;;;;5021670;28;20061;-70
2021/12/25 08:35:57;;;;;;;2.00;0.93;;;;;;;;;;5019482;28;20048;-70
2021/12/25 08:38:23;;;;;;;1.33;1.23;;;;;;;;;;5027111;28;20124;-70
2021/12/25 08:40:53;;;;;;;1.40;1.13;;;;;;;;;;5022843;28;20119;-70
2021/12/25 08:43:24;;;;;;;2.17;1.10;;;;;;;;;;5032238;28;20053;-70
2021/12/25 08:46:01;;;;;;;1.30;1.00;;;;;;;;;;5032799;28;20045;-70
2021/12/25 08:48:27;;;;;;;3.33;1.00;;;;;;;;;;5033389;28;20083;-70
2021/12/25 08:50:55;;;;;;;1.40;1.00;;;;;;;;;;5033621;28;20541;-70
2021/12/25 08:53:22;;;;;;;1.97;1.03;;;;;;;;;;5028899;28;20076;-71
2021/12/25 08:55:49;;;;;;;1.97;0.90;;;;;;;;;;5033799;28;20056;-71
2021/12/25 08:58:16;;;;;;;3.37;1.03;;;;;;;;;;5033032;28;20034;-70
2021/12/25 09:00:42;;;;;;;4.20;1.50;;;;;;;;;;5030859;28;20515;-71
2021/12/25 09:03:09;;;;;;;3.73;1.63;;;;;;;;;;5034097;28;20072;-71
2021/12/25 09:05:35;;;;;;;2.37;0.93;;;;;;;;;;5033895;28;20472;-70
2021/12/25 09:08:01;;;;;;;2.60;1.47;;;;;;;;;;5032561;28;20029;-71
2021/12/25 09:10:28;;;;;;;3.13;1.00;;;;;;;;;;5033870;28;20372;-70
2021/12/25 09:12:55;;;;;;;1.63;1.10;;;;;;;;;;5033369;28;20064;-71
2021/12/25 09:15:21;;;;;;;2.70;1.97;;;;;;;;;;5032629;28;20095;-71
2021/12/25 09:17:47;;;;;;;3.37;0.90;;;;;;;;;;5032964;28;20041;-70
2021/12/25 09:20:15;;;;;;;2.23;1.13;;;;;;;;;;5022109;28;20048;-71
2021/12/25 09:22:41;;;;;;;1.77;0.80;;;;;;;;;;5033904;28;20125;-70
2021/12/25 09:25:07;;;;;;;2.80;0.93;;;;;;;;;;5033534;28;20112;-71
2021/12/25 09:27:33;;;;;;;3.40;1.10;;;;;;;;;;5032472;28;20506;-70
2021/12/25 09:29:59;;;;;;;1.80;0.90;;;;;;;;;;5030683;28;20231;-70
2021/12/25 09:32:25;;;;;;;2.10;0.90;;;;;;;;;;5033365;28;20048;-71
2021/12/25 09:34:51;;;;;;;1.47;0.90;;;;;;;;;;5015165;28;20095;-72
2021/12/25 09:37:18;;;;;;;1.83;0.80;;;;;;;;;;5031028;28;20116;-73
2021/12/25 09:39:48;;;;;;;1.33;1.00;;;;;;;;;;5031046;28;20041;-72
2021/12/25 09:42:14;;;;;;;1.97;1.03;;;;;;;;;;5025888;28;20561;-72
2021/12/25 09:44:40;;;;;;;2.03;1.10;;;;;;;;;;5028614;28;20275;-72
2021/12/25 09:47:06;;;;;;;1.27;1.07;;;;;;;;;;5031944;28;20510;-72
2021/12/25 09:49:32;;;;;;;1.43;1.17;;;;;;;;;;5032056;28;20079;-72
2021/12/25 09:51:58;;;;;;;1.47;1.20;;;;;;;;;;5032960;28;20367;-71
2021/12/25 09:54:28;;;;;;;2.10;1.20;;;;;;;;;;5032468;28;20069;-72
2021/12/25 09:56:56;;;;;;;4.10;1.30;;;;;;;;;;5025053;28;20046;-71
2021/12/25 09:59:22;;;;;;;1.83;1.00;;;;;;;;;;5025876;28;20119;-71
2021/12/25 10:01:53;;;;;;;2.43;1.00;;;;;;;;;;5034173;28;20037;-71
2021/12/25 10:04:31;;;;;;;4.05;1.50;;;;;;;;;;5030684;28;20049;-70
2021/12/25 10:06:57;;;;;;;1.47;1.37;;;;;;;;;;5032118;28;20053;-70
2021/12/25 10:09:24;;;;;;;2.60;1.23;;;;;;;;;;5032400;28;20045;-70
2021/12/25 10:11:57;;;;;;;2.87;1.20;;;;;;;;;;5027752;28;20117;-70
2021/12/25 10:14:25;;;;;;;1.57;1.30;;;;;;;;;;5032063;28;20075;-71
2021/12/25 10:16:51;;;;;;;1.90;1.10;;;;;;;;;;5031356;28;20044;-71
2021/12/25 10:19:18;;;;;;;4.20;1.60;;;;;;;;;;5031275;28;20120;-69
2021/12/25 10:21:45;;;;;;;5.33;2.00;;;;;;;;;;5032324;28;20045;-70
2021/12/25 10:24:13;;;;;;;1.60;1.00;;;;;;;;;;5032423;28;20442;-70
2021/12/25 10:26:40;;;;;;;2.57;0.83;;;;;;;;;;5014351;28;20084;-70
2021/12/25 10:29:16;;;;;;;3.17;1.20;;;;;;;;;;5032196;28;20065;-70
2021/12/25 10:31:42;;;;;;;5.80;1.60;;;;;;;;;;5073506;22;20429;-67
2021/12/25 10:34:18;;;;;;;1.33;1.20;;;;;;;;;;5053008;28;20449;-67
2021/12/25 10:36:44;;;;;;;2.47;1.47;;;;;;;;;;5053392;28;20136;-67
2021/12/25 10:39:16;;;;;;;2.17;1.20;;;;;;;;;;5057340;28;20032;-67
2021/12/25 10:41:54;;;;;;;3.33;1.17;;;;;;;;;;5051753;28;20044;-67
2021/12/25 10:44:32;;;;;;;5.33;1.10;;;;;;;;;;5051111;28;20041;-67
2021/12/25 10:47:02;;;;;;;3.40;1.10;;;;;;;;;;5052051;28;20036;-67
2021/12/25 10:49:42;;;;;;;3.40;1.57;;;;;;;;;;5051317;28;20045;-66
2021/12/25 10:52:22;;;;;;;1.77;0.87;;;;;;;;;;5051921;28;20037;-66
2021/12/25 10:54:49;;;;;;;1.83;1.13;;;;;;;;;;5049643;28;20525;-66
2021/12/25 10:57:32;;;;;;;3.03;1.00;;;;;;;;;;5051170;28;20072;-67
2021/12/25 10:59:58;;;;;;;2.73;1.30;;;;;;;;;;5049705;28;20071;-67
2021/12/25 11:02:29;;;;;;;2.67;1.00;;;;;;;;;;5049663;28;20068;-67
2021/12/25 11:04:55;;;;;;;2.13;0.90;;;;;;;;;;5050460;28;20089;-67
2021/12/25 11:07:21;;;;;;;3.17;0.90;;;;;;;;;;5050637;28;20073;-67
2021/12/25 11:10:22;;;;;;;3.00;0.97;;;;;;;;;;5050431;28;20069;-66
2021/12/25 11:12:48;;;;;;;1.02;0.80;;;;;;;;;;5003142;28;20049;-67
2021/12/25 11:15:16;;;;;;;3.77;1.03;;;;;;;;;;5033778;28;20120;-67
2021/12/25 11:17:43;;;;;;;1.30;1.00;;;;;;;;;;5049182;28;20037;-66
2021/12/25 11:20:18;;;;;;;3.23;1.13;;;;;;;;;;5032090;28;20797;-66
2021/12/25 11:22:52;;;;;;;1.87;1.17;;;;;;;;;;5049480;28;20044;-67
2021/12/25 11:25:19;;;;;;;1.43;0.90;;;;;;;;;;5051039;28;20045;-66
2021/12/25 11:27:45;;;;;;;2.23;1.10;;;;;;;;;;5046705;28;20072;-67
2021/12/25 11:30:12;;;;;;;1.23;0.93;;;;;;;;;;5051545;28;20087;-67
2021/12/25 11:32:38;;;;;;;1.30;0.90;;;;;;;;;;5051141;28;20525;-67
2021/12/25 11:35:05;;;;;;;1.00;0.90;;;;;;;;;;5050803;28;20033;-67
2021/12/25 11:37:31;;;;;;;1.33;0.80;;;;;;;;;;5049091;28;20045;-67
2021/12/25 11:39:58;;;;;;;1.33;0.90;;;;;;;;;;5044407;28;20140;-67
2021/12/25 11:42:26;;;;;;;2.20;1.07;;;;;;;;;;5046856;28;20096;-67
2021/12/25 11:44:54;;;;;;;3.07;1.10;;;;;;;;;;5050182;28;20040;-67
2021/12/25 11:47:34;;;;;;;3.43;1.00;;;;;;;;;;5049824;28;20132;-67
2021/12/25 11:50:01;;;;;;;1.07;0.90;;;;;;;;;;5049479;28;20041;-67
2021/12/25 11:52:33;;;;;;;1.80;0.80;;;;;;;;;;5040640;28;20051;-67
2021/12/25 11:55:49;;;;;;;2.05;1.00;;;;;;;;;;5036168;28;20544;-67
2021/12/25 11:58:37;;;;;;;3.97;1.35;;;;;;;;;;5050649;28;20033;-67
2021/12/25 12:01:22;;;;;;;1.95;1.13;;;;;;;;;;5050218;28;20076;-67
2021/12/25 12:03:56;;;;;;;1.20;1.10;;;;;;;;;;5045322;28;20462;-67
2021/12/25 12:06:41;;;;;;;1.70;1.10;;;;;;;;;;5047514;28;20045;-67
2021/12/25 12:09:11;;;;;;;2.55;1.00;;;;;;;;;;5050628;28;20076;-67
2021/12/25 12:11:40;;;;;;;3.50;0.95;;;;;;;;;;5050948;28;20033;-67
2021/12/25 12:14:18;;;;;;;1.70;0.90;;;;;;;;;;5053476;28;20045;-67
2021/12/25 12:16:48;;;;;;;2.55;1.17;;;;;;;;;;5051897;28;20489;-67
2021/12/25 12:19:33;;;;;;;1.65;0.93;;;;;;;;;;5048888;28;20045;-68
2021/12/25 12:22:00;;;;;;;1.05;0.93;;;;;;;;;;5048391;28;20151;-67
2021/12/25 12:25:01;;;;;;;3.58;1.75;;;;;;;;;;5052095;28;20076;-67
2021/12/25 12:27:35;;;;;;;4.68;1.10;;;;;;;;;;5052120;28;20478;-67
2021/12/25 12:30:01;;;;;;;1.80;1.10;;;;;;;;;;5050347;28;20033;-67
2021/12/25 12:32:30;;;;;;;1.20;1.10;;;;;;;;;;5054091;28;20056;-67
2021/12/25 12:34:56;;;;;;;1.05;0.95;;;;;;;;;;5052848;28;20401;-67
2021/12/25 12:37:24;;;;;;;1.67;1.25;;;;;;;;;;5054152;28;20033;-67
2021/12/25 12:39:54;;;;;;;1.90;1.00;;;;;;;;;;5054247;28;20057;-67
2021/12/25 12:42:20;;;;;;;3.23;1.10;;;;;;;;;;5051255;28;20498;-67
2021/12/25 12:44:53;;;;;;;4.85;1.20;;;;;;;;;;5054200;28;20061;-66
2021/12/25 12:47:19;;;;;;;1.25;0.90;;;;;;;;;;5053023;28;20174;-66
2021/12/25 12:49:45;;;;;;;1.75;1.10;;;;;;;;;;5053740;28;20045;-67
2021/12/25 12:52:16;;;;;;;2.20;0.90;;;;;;;;;;5052169;28;20380;-67
2021/12/25 12:54:50;;;;;;;2.25;1.08;;;;;;;;;;5053620;28;20057;-66
2021/12/25 12:57:39;;;;;;;1.95;0.90;;;;;;;;;;5038984;28;20040;-67
2021/12/25 13:00:13;;;;;;;2.38;1.00;;;;;;;;;;5047731;28;20045;-67
2021/12/25 13:02:44;;;;;;;1.10;1.02;;;;;;;;;;5054180;28;20573;-66
2021/12/25 13:05:11;;;;;;;2.58;1.17;;;;;;;;;;5051819;28;20128;-66
2021/12/25 13:07:40;;;;;;;1.67;1.35;;;;;;;;;;5052094;28;20037;-66
2021/12/25 13:10:14;;;;;;;4.30;1.33;;;;;;;;;;5050470;28;20071;-66
2021/12/25 13:12:44;;;;;;;1.23;0.93;;;;;;;;;;5049667;28;20514;-67
2021/12/25 13:15:14;;;;;;;3.35;1.20;;;;;;;;;;5052643;28;20391;-67
2021/12/25 13:17:50;;;;;;;2.10;1.00;;;;;;;;;;5053313;28;20407;-67
2021/12/25 13:20:17;;;;;;;2.42;0.90;;;;;;;;;;5048846;28;20047;-66
2021/12/25 13:22:43;;;;;;;4.32;1.08;;;;;;;;;;5050821;28;20044;-66
2021/12/25 13:25:10;;;;;;;3.17;1.15;;;;;;;;;;5049576;28;20048;-66
2021/12/25 13:27:36;;;;;;;3.70;1.30;;;;;;;;;;5053302;28;20052;-66
2021/12/25 13:30:07;;;;;;;1.60;1.00;;;;;;;;;;5051891;28;20041;-66
2021/12/25 13:32:33;;;;;;;2.30;1.20;;;;;;;;;;5053036;28;20033;-66
2021/12/25 13:34:59;;;;;;;2.80;1.10;;;;;;;;;;5034781;28;20297;-66
2021/12/25 13:37:25;;;;;;;2.88;1.17;;;;;;;;;;5052134;28;20055;-66
2021/12/25 13:39:51;;;;;;;1.40;1.10;;;;;;;;;;5051879;28;20041;-66
2021/12/25 13:42:17;;;;;;;3.47;1.40;;;;;;;;;;5052481;28;20458;-66
2021/12/25 13:44:48;;;;;;;1.65;1.00;;;;;;;;;;5052836;28;20050;-67
2021/12/25 13:47:13;;;;;;;1.48;1.20;;;;;;;;;;5052794;28;20053;-67
2021/12/25 13:49:47;;;;;;;3.08;1.08;;;;;;;;;;5052024;28;20044;-66
2021/12/25 13:52:25;;;;;;;1.63;1.45;;;;;;;;;;5049015;28;20039;-65
2021/12/25 13:54:54;;;;;;;1.30;0.95;;;;;;;;;;5049766;28;20478;-67
2021/12/25 13:57:20;;;;;;;2.20;1.00;;;;;;;;;;5051840;28;20060;-66
2021/12/25 13:59:50;;;;;;;2.17;0.85;;;;;;;;;;5051629;28;20036;-66
2021/12/25 14:02:17;;;;;;;3.90;1.05;;;;;;;;;;5052633;28;20076;-67
2021/12/25 14:04:45;;;;;;;6.43;2.00;;;;;;;;;;5052055;28;20482;-66
2021/12/25 14:07:13;;;;;;;1.43;1.10;;;;;;;;;;5038791;28;20060;-66
2021/12/25 14:09:39;;;;;;;2.73;1.17;;;;;;;;;;5051713;28;20041;-67
2021/12/25 14:12:05;;;;;;;3.33;1.58;;;;;;;;;;5051050;28;20118;-67
2021/12/25 14:14:31;;;;;;;1.85;1.00;;;;;;;;;;5051691;28;20035;-67
2021/12/25 14:16:58;;;;;;;1.23;0.95;;;;;;;;;;5047775;28;20032;-66
2021/12/25 14:19:25;;;;;;;1.52;0.90;;;;;;;;;;5050390;28;20048;-66
2021/12/25 14:22:02;;;;;;;2.53;0.90;;;;;;;;;;5050381;28;20050;-66
2021/12/25 14:24:30;;;;;;;1.80;0.90;;;;;;;;;;5049761;28;20129;-66
2021/12/25 14:27:07;;;;;;;3.13;1.20;;;;;;;;;;5047575;28;20036;-67
2021/12/25 14:29:33;;;;;;;2.00;1.20;;;;;;;;;;5046206;28;20037;-67
2021/12/25 14:31:59;;;;;;;1.95;1.00;;;;;;;;;;5052066;28;20174;-67
2021/12/25 14:34:29;;;;;;;3.00;1.00;;;;;;;;;;5048018;28;20116;-67
2021/12/25 14:36:55;;;;;;;3.60;0.90;;;;;;;;;;5047107;28;20048;-67
2021/12/25 14:39:23;;;;;;;1.93;1.10;;;;;;;;;;5050811;28;20041;-67
2021/12/25 14:41:51;;;;;;;4.13;1.57;;;;;;;;;;5048099;28;20041;-67
2021/12/25 14:44:21;;;;;;;1.57;1.30;;;;;;;;;;5022229;28;20056;-67
2021/12/25 14:46:48;;;;;;;2.53;1.17;;;;;;;;;;5044777;28;20064;-67
2021/12/25 14:49:14;;;;;;;1.67;1.10;;;;;;;;;;5047930;28;20307;-67
2021/12/25 14:51:43;;;;;;;1.53;1.10;;;;;;;;;;5045088;28;20024;-67
2021/12/25 14:54:10;;;;;;;2.47;1.00;;;;;;;;;;5045003;28;20045;-67
2021/12/25 14:56:38;;;;;;;2.37;1.10;;;;;;;;;;5041105;28;20048;-68
2021/12/25 14:59:19;;;;;;;2.70;1.50;;;;;;;;;;5050644;28;20116;-67
2021/12/25 15:01:46;;;;;;;2.87;1.07;;;;;;;;;;5032536;28;20037;-67
2021/12/25 15:04:19;;;;;;;1.57;1.20;;;;;;;;;;5050751;28;20045;-68
2021/12/25 15:06:47;;;;;;;1.92;1.30;;;;;;;;;;5050922;28;20033;-67
2021/12/25 15:09:16;;;;;;;2.70;1.23;;;;;;;;;;5046783;28;20506;-67
2021/12/25 15:11:44;;;;;;;2.42;1.20;;;;;;;;;;5048961;28;20060;-66
2021/12/25 15:14:11;;;;;;;1.90;1.30;;;;;;;;;;5047516;28;20079;-68
2021/12/25 15:16:40;;;;;;;1.30;1.20;;;;;;;;;;5049432;28;20108;-68
2021/12/25 15:19:07;;;;;;;1.67;1.50;;;;;;;;;;5050091;28;20075;-68
2021/12/25 15:21:42;;;;;;;4.17;1.50;;;;;;;;;;5049238;28;20051;-68
2021/12/25 15:24:13;;;;;;;2.53;1.40;;;;;;;;;;5048209;28;20044;-67
2021/12/25 15:26:41;;;;;;;3.13;1.67;;;;;;;;;;5044806;28;20048;-67
2021/12/25 15:29:07;;;;;;;2.17;1.30;;;;;;;;;;5046895;28;20037;-67
2021/12/25 15:31:33;;;;;;;1.50;1.30;;;;;;;;;;5049668;28;20445;-67
2021/12/25 15:34:00;;;;;;;1.77;1.10;;;;;;;;;;5050195;28;20508;-67
2021/12/25 15:36:28;;;;;;;1.73;1.03;;;;;;;;;;5048711;28;20115;-67
2021/12/25 15:38:55;;;;;;;3.23;1.20;;;;;;;;;;5044820;28;20051;-67
2021/12/25 15:41:22;;;;;;;3.03;1.40;;;;;;;;;;5045837;28;20566;-67
2021/12/25 15:43:48;;;;;;;1.57;1.40;;;;;;;;;;5049473;28;20120;-68
2021/12/25 15:46:14;;;;;;;3.70;1.43;;;;;;;;;;5049962;28;20075;-67